createdAt,value
2017-10-05T00:01:40.008Z,2.83
2017-10-05T00:04:06.632Z,3.20
2017-10-05T00:06:33.273Z,3.80
2017-10-05T00:08:59.861Z,2.80
2017-10-05T00:11:26.488Z,2.57
2017-10-05T00:13:53.114Z,3.10
2017-10-05T00:16:19.693Z,2.90
2017-10-05T00:18:46.311Z,2.57
2017-10-05T00:21:12.902Z,3.50
2017-10-05T00:23:39.488Z,3.27
2017-10-05T00:26:06.107Z,2.60
2017-10-05T00:28:32.736Z,2.90
2017-10-05T00:30:59.336Z,3.37
2017-10-05T00:33:25.925Z,2.63
2017-10-05T00:35:52.540Z,2.67
2017-10-05T00:38:19.124Z,2.43
2017-10-05T00:40:45.736Z,2.27
2017-10-05T00:43:12.324Z,2.47
2017-10-05T00:45:38.943Z,2.77
2017-10-05T00:48:05.532Z,2.90
2017-10-05T00:50:32.150Z,2.90
2017-10-05T00:52:58.768Z,2.53
2017-10-05T00:55:25.356Z,3.00
2017-10-05T00:57:51.974Z,2.93
2017-10-05T01:00:18.596Z,2.60
2017-10-05T01:02:45.205Z,2.80
2017-10-05T01:05:11.841Z,2.80
2017-10-05T01:07:38.412Z,2.27
2017-10-05T01:10:05.029Z,2.90
2017-10-05T01:12:31.621Z,2.90
2017-10-05T01:14:58.230Z,2.20
2017-10-05T01:17:24.841Z,2.60
2017-10-05T01:19:51.435Z,2.80
2017-10-05T01:22:18.064Z,2.60
2017-10-05T01:24:44.668Z,2.67
2017-10-05T01:27:11.258Z,2.40
2017-10-05T01:29:37.873Z,2.57
2017-10-05T01:32:04.476Z,3.17
2017-10-05T01:34:31.101Z,2.30
2017-10-05T01:36:57.696Z,2.53
2017-10-05T01:39:24.315Z,2.30
2017-10-05T01:41:50.905Z,3.07
2017-10-05T01:44:17.542Z,2.60
2017-10-05T01:46:44.139Z,2.17
2017-10-05T01:49:10.736Z,2.87
2017-10-05T01:51:37.357Z,2.37
2017-10-05T01:54:03.979Z,2.67
2017-10-05T01:56:30.577Z,2.33
2017-10-05T01:58:57.180Z,3.00
2017-10-05T02:01:23.898Z,2.07
2017-10-05T02:03:50.480Z,2.77
2017-10-05T02:06:17.105Z,2.70
2017-10-05T02:08:43.720Z,2.13
2017-10-05T02:11:10.337Z,2.10
2017-10-05T02:13:36.942Z,2.00
2017-10-05T02:16:03.572Z,2.70
2017-10-05T02:18:30.164Z,2.30
2017-10-05T02:20:57.597Z,2.60
2017-10-05T02:23:24.214Z,2.30
2017-10-05T02:25:50.810Z,2.37
2017-10-05T02:28:17.439Z,2.80
2017-10-05T02:30:44.049Z,2.77
2017-10-05T02:33:10.663Z,2.13
2017-10-05T02:35:37.280Z,2.50
2017-10-05T02:38:03.869Z,2.13
2017-10-05T02:40:30.492Z,2.43
2017-10-05T02:42:57.096Z,2.20
2017-10-05T02:45:23.716Z,2.00
2017-10-05T02:47:50.351Z,2.10
2017-10-05T02:50:16.937Z,2.20
2017-10-05T02:52:43.556Z,2.23
2017-10-05T02:55:10.150Z,2.50
2017-10-05T02:57:36.751Z,1.90
2017-10-05T03:00:03.361Z,2.23
2017-10-05T03:02:29.947Z,2.00
2017-10-05T03:04:56.579Z,2.30
2017-10-05T03:07:23.172Z,2.30
2017-10-05T03:09:49.762Z,2.63
2017-10-05T03:12:16.381Z,2.10
2017-10-05T03:14:42.974Z,2.07
2017-10-05T03:17:09.573Z,2.23
2017-10-05T03:19:36.188Z,2.07
2017-10-05T03:22:02.785Z,2.40
2017-10-05T03:24:29.406Z,2.10
2017-10-05T03:26:56.009Z,2.00
2017-10-05T03:29:22.605Z,1.70
2017-10-05T03:31:49.220Z,2.10
2017-10-05T03:34:15.816Z,2.37
2017-10-05T03:36:42.417Z,2.87
2017-10-05T03:39:09.024Z,2.33
2017-10-05T03:41:35.660Z,2.90
2017-10-05T03:44:02.256Z,2.17
2017-10-05T03:46:28.855Z,1.93
2017-10-05T03:48:55.468Z,2.30
2017-10-05T03:51:22.069Z,2.00
2017-10-05T03:53:48.693Z,1.80
2017-10-05T03:56:15.281Z,2.77
2017-10-05T03:58:41.892Z,1.70
2017-10-05T04:01:08.500Z,2.10
2017-10-05T04:03:35.116Z,1.83
2017-10-05T04:06:01.704Z,2.20
2017-10-05T04:08:28.393Z,2.40
2017-10-05T04:10:55.011Z,2.30
2017-10-05T04:13:21.604Z,2.37
2017-10-05T04:15:48.227Z,2.30
2017-10-05T04:18:14.813Z,2.30
2017-10-05T04:20:41.404Z,2.00
2017-10-05T04:23:08.053Z,2.20
2017-10-05T04:25:34.646Z,2.60
2017-10-05T04:28:01.241Z,2.10
2017-10-05T04:30:27.845Z,1.90
2017-10-05T04:32:54.476Z,1.97
2017-10-05T04:35:21.105Z,2.50
2017-10-05T04:37:47.701Z,2.87
2017-10-05T04:40:14.314Z,2.13
2017-10-05T04:42:40.912Z,2.87
2017-10-05T04:45:07.538Z,1.80
2017-10-05T04:47:34.130Z,2.00
2017-10-05T04:50:00.721Z,2.10
2017-10-05T04:52:27.349Z,1.90
2017-10-05T04:54:53.951Z,1.93
2017-10-05T04:57:20.556Z,2.00
2017-10-05T04:59:47.185Z,2.60
2017-10-05T05:02:13.777Z,2.43
2017-10-05T05:04:40.370Z,2.20
2017-10-05T05:07:07.004Z,1.67
2017-10-05T05:09:33.597Z,2.47
2017-10-05T05:12:00.196Z,2.13
2017-10-05T05:14:26.809Z,2.30
2017-10-05T05:16:53.407Z,2.10
2017-10-05T05:19:20.029Z,1.87
2017-10-05T05:21:46.632Z,2.53
2017-10-05T05:24:13.274Z,2.30
2017-10-05T05:26:39.874Z,2.10
2017-10-05T05:29:06.493Z,2.63
2017-10-05T05:31:33.080Z,2.27
2017-10-05T05:33:59.668Z,2.50
2017-10-05T05:36:26.301Z,2.00
2017-10-05T05:38:52.895Z,2.27
2017-10-05T05:41:19.490Z,2.20
2017-10-05T05:43:46.107Z,2.20
2017-10-05T05:46:12.745Z,2.53
2017-10-05T05:48:39.359Z,2.00
2017-10-05T05:51:05.945Z,2.17
2017-10-05T05:53:32.549Z,2.40
2017-10-05T05:55:59.160Z,2.43
2017-10-05T05:58:25.756Z,2.23
2017-10-05T06:00:52.364Z,2.20
2017-10-05T06:03:18.984Z,2.33
2017-10-05T06:05:45.580Z,2.53
2017-10-05T06:08:12.212Z,2.37
2017-10-05T06:10:38.837Z,2.90
2017-10-05T06:13:05.452Z,2.50
2017-10-05T06:15:32.052Z,2.40
2017-10-05T06:17:58.643Z,2.50
2017-10-05T06:20:25.284Z,2.20
2017-10-05T06:22:51.905Z,2.40
2017-10-05T06:25:18.492Z,2.77
2017-10-05T06:27:45.113Z,2.30
2017-10-05T06:30:11.712Z,2.97
2017-10-05T06:32:38.332Z,2.50
2017-10-05T06:35:04.928Z,2.33
2017-10-05T06:37:31.532Z,2.23
2017-10-05T06:39:58.152Z,2.70
2017-10-05T06:42:24.740Z,2.60
2017-10-05T06:44:51.368Z,2.43
2017-10-05T06:47:17.955Z,2.17
2017-10-05T06:49:44.572Z,2.20
2017-10-05T06:52:11.160Z,1.80
2017-10-05T06:54:37.788Z,2.10
2017-10-05T06:57:04.566Z,2.10
2017-10-05T06:59:31.136Z,2.13
2017-10-05T07:01:57.748Z,1.90
2017-10-05T07:04:24.340Z,2.10
2017-10-05T07:06:50.968Z,2.73
2017-10-05T07:09:17.564Z,2.80
2017-10-05T07:11:44.151Z,2.10
2017-10-05T07:14:10.764Z,2.30
2017-10-05T07:16:37.364Z,2.10
2017-10-05T07:19:03.981Z,2.23
2017-10-05T07:21:30.596Z,2.17
2017-10-05T07:23:57.196Z,2.00
2017-10-05T07:26:23.783Z,2.10
2017-10-05T07:28:50.388Z,2.30
2017-10-05T07:31:17.003Z,2.00
2017-10-05T07:33:43.639Z,2.63
2017-10-05T07:36:10.239Z,1.87
2017-10-05T07:38:36.836Z,1.73
2017-10-05T07:41:03.476Z,1.90
2017-10-05T07:43:30.088Z,2.50
2017-10-05T07:45:56.704Z,1.60
2017-10-05T07:48:23.300Z,2.20
2017-10-05T07:50:49.916Z,1.93
2017-10-05T07:53:16.513Z,2.47
2017-10-05T07:55:43.137Z,2.40
2017-10-05T07:58:09.756Z,1.87
2017-10-05T08:00:36.344Z,2.20
2017-10-05T08:03:02.961Z,2.50
2017-10-05T08:05:29.590Z,2.20
2017-10-05T08:07:56.180Z,2.30
2017-10-05T08:10:22.792Z,2.00
2017-10-05T08:12:49.416Z,2.10
2017-10-05T08:15:16.017Z,2.27
2017-10-05T08:17:42.612Z,2.27
2017-10-05T08:20:09.229Z,2.00
2017-10-05T08:22:35.823Z,2.67
2017-10-05T08:25:02.438Z,2.27
2017-10-05T08:27:29.033Z,2.87
2017-10-05T08:29:55.684Z,2.30
2017-10-05T08:32:22.262Z,1.90
2017-10-05T08:34:48.872Z,2.07
2017-10-05T08:37:15.469Z,1.83
2017-10-05T08:39:42.109Z,2.47
2017-10-05T08:42:08.725Z,2.30
2017-10-05T08:44:35.320Z,2.63
2017-10-05T08:47:01.956Z,2.70
2017-10-05T08:49:28.552Z,2.70
2017-10-05T08:51:55.143Z,2.20
2017-10-05T08:54:21.771Z,2.00
2017-10-05T08:56:48.387Z,2.40
2017-10-05T08:59:14.989Z,2.23
2017-10-05T09:01:41.609Z,2.57
2017-10-05T09:04:08.301Z,2.87
2017-10-05T09:06:34.880Z,2.03
2017-10-05T09:09:01.495Z,2.30
2017-10-05T09:11:28.116Z,2.40
2017-10-05T09:13:54.741Z,1.50
2017-10-05T09:16:21.337Z,2.40
2017-10-05T09:18:47.934Z,2.00
2017-10-05T09:21:14.552Z,2.20
2017-10-05T09:23:41.159Z,2.33
2017-10-05T09:26:07.777Z,1.43
2017-10-05T09:28:34.376Z,2.20
2017-10-05T09:31:00.996Z,2.40
2017-10-05T09:33:27.594Z,2.47
2017-10-05T09:35:54.286Z,1.97
2017-10-05T09:38:20.901Z,2.10
2017-10-05T09:40:47.488Z,2.03
2017-10-05T09:43:14.108Z,1.93
2017-10-05T09:45:40.696Z,2.10
2017-10-05T09:48:07.308Z,1.67
2017-10-05T09:50:33.918Z,2.30
2017-10-05T09:53:00.570Z,2.27
2017-10-05T09:55:27.163Z,1.60
2017-10-05T09:57:53.749Z,2.17
2017-10-05T10:00:20.365Z,1.97
2017-10-05T10:02:46.981Z,1.73
2017-10-05T10:05:13.578Z,2.00
2017-10-05T10:07:40.260Z,2.03
2017-10-05T10:10:06.854Z,1.50
2017-10-05T10:12:33.447Z,2.67
2017-10-05T10:15:00.082Z,2.40
2017-10-05T10:17:26.716Z,1.77
2017-10-05T10:19:53.337Z,1.77
2017-10-05T10:22:19.951Z,2.00
2017-10-05T10:24:46.616Z,1.73
2017-10-05T10:27:13.192Z,1.63
2017-10-05T10:29:39.809Z,1.77
2017-10-05T10:32:06.428Z,1.93
2017-10-05T10:34:33.050Z,1.80
2017-10-05T10:36:59.671Z,1.93
2017-10-05T10:39:26.268Z,1.70
2017-10-05T10:41:52.912Z,1.90
2017-10-05T10:44:19.505Z,1.77
2017-10-05T10:46:46.097Z,1.60
2017-10-05T10:49:12.700Z,1.70
2017-10-05T10:51:39.290Z,1.83
2017-10-05T10:54:05.925Z,1.63
2017-10-05T10:56:32.520Z,1.63
2017-10-05T10:58:59.104Z,1.50
2017-10-05T11:01:25.744Z,1.60
2017-10-05T11:03:52.363Z,1.87
2017-10-05T11:06:18.989Z,2.03
2017-10-05T11:08:45.589Z,1.83
2017-10-05T11:11:12.217Z,2.30
2017-10-05T11:13:38.801Z,1.63
2017-10-05T11:16:05.420Z,1.70
2017-10-05T11:18:32.040Z,1.73
2017-10-05T11:20:58.709Z,1.70
2017-10-05T11:23:25.396Z,1.97
2017-10-05T11:25:51.978Z,1.70
2017-10-05T11:28:18.614Z,1.87
2017-10-05T11:30:45.238Z,2.33
2017-10-05T11:33:11.832Z,1.70
2017-10-05T11:35:38.695Z,1.57
2017-10-05T11:38:05.313Z,1.73
2017-10-05T11:40:31.916Z,1.90
2017-10-05T11:42:58.654Z,1.73
2017-10-05T11:45:25.284Z,1.40
2017-10-05T11:47:51.874Z,1.70
2017-10-05T11:50:18.462Z,1.57
2017-10-05T11:52:45.085Z,1.40
2017-10-05T11:55:11.675Z,1.83
2017-10-05T11:57:38.298Z,1.30
2017-10-05T12:00:05.141Z,1.27
2017-10-05T12:02:31.738Z,1.20
2017-10-05T12:04:58.348Z,1.13
2017-10-05T12:07:25.137Z,1.50
2017-10-05T12:09:51.747Z,1.10
2017-10-05T12:12:18.334Z,1.10
2017-10-05T12:14:44.940Z,1.27
2017-10-05T12:17:11.574Z,1.20
2017-10-05T12:19:38.208Z,1.80
2017-10-05T12:22:04.954Z,1.50
2017-10-05T12:24:31.540Z,1.23
2017-10-05T12:26:58.174Z,1.17
2017-10-05T12:29:24.797Z,1.70
2017-10-05T12:31:51.421Z,1.63
2017-10-05T12:34:18.052Z,1.70
2017-10-05T12:36:44.641Z,1.30
2017-10-05T12:39:11.272Z,1.57
2017-10-05T12:41:37.852Z,1.30
2017-10-05T12:44:04.448Z,1.40
2017-10-05T12:46:31.073Z,1.43
2017-10-05T12:48:57.659Z,1.40
2017-10-05T12:51:24.259Z,1.70
2017-10-05T12:53:50.872Z,1.47
2017-10-05T12:56:17.468Z,1.40
2017-10-05T12:58:44.085Z,2.10
2017-10-05T13:01:10.685Z,1.33
2017-10-05T13:03:37.306Z,1.43
2017-10-05T13:06:03.893Z,1.37
2017-10-05T13:08:30.507Z,1.80
2017-10-05T13:10:57.110Z,1.27
2017-10-05T13:13:23.704Z,1.37
2017-10-05T13:15:50.328Z,1.33
2017-10-05T13:18:16.942Z,1.47
2017-10-05T13:20:43.548Z,1.57
2017-10-05T13:23:10.139Z,1.87
2017-10-05T13:25:36.774Z,1.30
2017-10-05T13:28:03.378Z,1.83
2017-10-05T13:30:29.955Z,1.50
2017-10-05T13:32:56.572Z,1.53
2017-10-05T13:35:23.189Z,1.57
2017-10-05T13:37:49.782Z,1.60
2017-10-05T13:40:16.392Z,1.40
2017-10-05T13:42:43.018Z,1.40
2017-10-05T13:45:09.633Z,1.90
2017-10-05T13:47:36.260Z,1.67
2017-10-05T13:50:02.849Z,1.70
2017-10-05T13:52:29.451Z,1.60
2017-10-05T13:54:56.072Z,1.80
2017-10-05T13:57:22.673Z,1.40
2017-10-05T13:59:49.270Z,1.50
2017-10-05T14:02:15.884Z,1.53
2017-10-05T14:04:42.480Z,1.57
2017-10-05T14:07:09.093Z,1.80
2017-10-05T14:09:35.681Z,1.37
2017-10-05T14:12:02.402Z,1.50
2017-10-05T14:14:28.976Z,1.73
2017-10-05T14:16:55.588Z,1.60
2017-10-05T14:19:22.209Z,1.90
2017-10-05T14:21:48.800Z,1.73
2017-10-05T14:24:15.413Z,1.60
2017-10-05T14:26:42.037Z,2.27
2017-10-05T14:29:08.677Z,1.90
2017-10-05T14:31:35.309Z,1.73
2017-10-05T14:34:01.913Z,1.87
2017-10-05T14:36:28.968Z,1.93
2017-10-05T14:38:55.636Z,2.07
2017-10-05T14:41:22.256Z,2.40
2017-10-05T14:43:48.864Z,3.03
2017-10-05T14:46:15.506Z,2.60
2017-10-05T14:48:42.105Z,2.23
2017-10-05T14:51:08.754Z,2.40
2017-10-05T14:53:35.357Z,2.70
2017-10-05T14:56:01.982Z,2.47
2017-10-05T14:58:28.629Z,2.53
2017-10-05T15:00:55.222Z,2.53
2017-10-05T15:03:21.857Z,2.67
2017-10-05T15:05:48.480Z,2.40
2017-10-05T15:08:15.071Z,2.83
2017-10-05T15:10:41.690Z,2.27
2017-10-05T15:13:08.302Z,3.07
2017-10-05T15:15:34.944Z,2.57
2017-10-05T15:18:01.562Z,2.07
2017-10-05T15:20:28.166Z,2.47
2017-10-05T15:22:54.796Z,2.47
2017-10-05T15:25:21.418Z,2.40
2017-10-05T15:27:48.028Z,2.80
2017-10-05T15:30:14.653Z,2.60
2017-10-05T15:32:41.277Z,2.40
2017-10-05T15:35:07.877Z,2.67
2017-10-05T15:37:34.479Z,2.40
2017-10-05T15:40:01.095Z,1.90
2017-10-05T15:42:27.685Z,2.37
2017-10-05T15:44:54.279Z,2.20
2017-10-05T15:47:20.896Z,2.70
2017-10-05T15:49:47.603Z,3.00
2017-10-05T15:52:14.197Z,2.47
2017-10-05T15:54:40.833Z,2.57
2017-10-05T15:57:07.412Z,2.63
2017-10-05T15:59:34.012Z,2.80
2017-10-05T16:02:00.641Z,2.87
2017-10-05T16:04:27.289Z,3.07
2017-10-05T16:06:53.880Z,3.00
2017-10-05T16:09:20.485Z,2.80
2017-10-05T16:11:47.100Z,2.80
2017-10-05T16:14:13.700Z,2.97
2017-10-05T16:16:40.309Z,2.60
2017-10-05T16:19:06.905Z,3.43
2017-10-05T16:21:33.523Z,2.60
2017-10-05T16:24:00.123Z,2.87
2017-10-05T16:26:26.752Z,2.63
2017-10-05T16:28:53.367Z,2.90
2017-10-05T16:31:19.957Z,3.10
2017-10-05T16:33:46.605Z,3.60
2017-10-05T16:36:13.200Z,3.10
2017-10-05T16:38:39.784Z,3.57
2017-10-05T16:41:06.398Z,2.83
2017-10-05T16:43:33.017Z,3.73
2017-10-05T16:45:59.616Z,2.93
2017-10-05T16:48:26.208Z,3.50
2017-10-05T16:50:52.826Z,3.43
2017-10-05T16:53:19.457Z,2.90
2017-10-05T16:55:46.080Z,3.00
2017-10-05T16:58:12.704Z,3.50
2017-10-05T17:00:39.312Z,2.77
2017-10-05T17:03:05.892Z,3.57
2017-10-05T17:05:32.516Z,3.87
2017-10-05T17:07:59.141Z,3.90
2017-10-05T17:10:26.596Z,3.53
2017-10-05T17:12:53.192Z,1.77
2017-10-05T17:15:19.827Z,1.90
2017-10-05T17:17:46.416Z,1.57
2017-10-05T17:20:13.008Z,1.83
2017-10-05T17:22:39.620Z,1.87
2017-10-05T17:25:06.229Z,1.63
2017-10-05T17:27:32.820Z,2.33
2017-10-05T17:29:59.447Z,1.50
2017-10-05T17:32:26.045Z,1.53
2017-10-05T17:34:52.637Z,1.30
2017-10-05T17:37:19.245Z,2.03
2017-10-05T17:39:45.870Z,1.80
2017-10-05T17:42:12.497Z,1.40
2017-10-05T17:44:39.116Z,1.53
2017-10-05T17:47:05.733Z,1.67
2017-10-05T17:49:32.341Z,1.70
2017-10-05T17:51:58.957Z,1.40
2017-10-05T17:54:25.585Z,1.90
2017-10-05T17:56:52.179Z,1.40
2017-10-05T17:59:18.777Z,1.33
2017-10-05T18:01:45.392Z,1.67
2017-10-05T18:04:11.977Z,2.20
2017-10-05T18:06:38.588Z,2.10
2017-10-05T18:09:05.185Z,2.27
2017-10-05T18:11:31.812Z,2.23
2017-10-05T18:13:58.407Z,1.53
2017-10-05T18:16:25.001Z,2.27
2017-10-05T18:18:51.623Z,1.90
2017-10-05T18:21:18.212Z,2.23
2017-10-05T18:23:44.828Z,2.13
2017-10-05T18:26:11.449Z,2.60
2017-10-05T18:28:38.045Z,1.90
2017-10-05T18:31:04.681Z,2.50
2017-10-05T18:33:31.279Z,2.10
2017-10-05T18:35:57.882Z,2.50
2017-10-05T18:38:24.496Z,2.93
2017-10-05T18:40:51.113Z,2.83
2017-10-05T18:43:17.728Z,2.60
2017-10-05T18:45:44.332Z,2.30
2017-10-05T18:48:10.944Z,2.07
2017-10-05T18:50:37.568Z,1.87
2017-10-05T18:53:04.191Z,2.30
2017-10-05T18:55:30.782Z,2.07
2017-10-05T18:57:57.388Z,1.97
2017-10-05T19:00:23.980Z,2.07
2017-10-05T19:02:50.604Z,1.80
2017-10-05T19:05:17.210Z,2.00
2017-10-05T19:07:43.806Z,1.93
2017-10-05T19:10:10.434Z,2.57
2017-10-05T19:12:37.057Z,1.80
2017-10-05T19:15:03.676Z,2.33
2017-10-05T19:17:30.258Z,2.67
2017-10-05T19:19:56.883Z,2.30
2017-10-05T19:22:23.594Z,2.50
2017-10-05T19:24:50.205Z,2.23
2017-10-05T19:27:16.826Z,2.80
2017-10-05T19:29:43.450Z,2.63
2017-10-05T19:32:10.088Z,3.43
2017-10-05T19:34:36.681Z,3.50
2017-10-05T19:37:03.293Z,3.40
2017-10-05T19:39:29.901Z,2.90
2017-10-05T19:41:56.536Z,3.53
2017-10-05T19:44:23.146Z,2.83
2017-10-05T19:46:49.769Z,2.87
2017-10-05T19:49:16.395Z,3.00
2017-10-05T19:51:43.026Z,2.87
2017-10-05T19:54:09.625Z,2.97
2017-10-05T19:56:36.233Z,2.87
2017-10-05T19:59:02.854Z,2.53
2017-10-05T20:01:29.451Z,2.57
2017-10-05T20:03:56.097Z,3.40
2017-10-05T20:06:22.724Z,2.97
2017-10-05T20:08:49.323Z,3.17
2017-10-05T20:11:15.930Z,3.13
2017-10-05T20:13:44.230Z,2.53
2017-10-05T20:16:15.614Z,2.50
2017-10-05T20:18:43.784Z,3.30
2017-10-05T20:21:13.140Z,2.80
2017-10-05T20:23:54.581Z,3.60
2017-10-05T20:26:36.983Z,3.40
2017-10-05T20:29:23.278Z,3.73
2017-10-05T20:32:04.785Z,4.30
2017-10-05T20:34:31.381Z,3.90
2017-10-05T20:36:58.009Z,3.80
2017-10-05T20:39:24.636Z,4.13
2017-10-05T20:41:51.265Z,3.90
2017-10-05T20:44:17.885Z,5.37
2017-10-05T20:46:44.511Z,4.80
2017-10-05T20:49:11.121Z,4.80
2017-10-05T20:51:37.769Z,4.53
2017-10-05T20:54:04.373Z,4.80
2017-10-05T20:56:31.005Z,4.40
2017-10-05T20:58:57.602Z,4.20
2017-10-05T21:01:24.203Z,4.60
2017-10-05T21:03:50.849Z,4.20
2017-10-05T21:06:17.454Z,4.77
2017-10-05T21:08:44.053Z,4.07
2017-10-05T21:11:10.670Z,3.93
2017-10-05T21:13:37.304Z,3.80
2017-10-05T21:16:04.110Z,4.27
2017-10-05T21:18:30.709Z,4.17
2017-10-05T21:20:57.338Z,4.27
2017-10-05T21:23:23.973Z,4.00
2017-10-05T21:25:50.571Z,4.30
2017-10-05T21:28:17.191Z,3.93
2017-10-05T21:30:43.818Z,5.20
2017-10-05T21:33:10.410Z,4.20
2017-10-05T21:35:37.038Z,3.70
2017-10-05T21:38:03.634Z,4.70
2017-10-05T21:40:30.235Z,4.93
2017-10-05T21:42:56.867Z,4.70
2017-10-05T21:45:23.469Z,5.23
2017-10-05T21:47:50.061Z,5.57
2017-10-05T21:50:16.865Z,5.40
2017-10-05T21:52:43.476Z,5.10
2017-10-05T21:55:10.083Z,5.33
2017-10-05T21:57:36.826Z,5.07
2017-10-05T22:00:03.419Z,5.77
2017-10-05T22:02:30.017Z,4.90
2017-10-05T22:04:56.646Z,4.80
2017-10-05T22:07:23.240Z,5.00
2017-10-05T22:09:49.856Z,5.80
2017-10-05T22:12:16.477Z,5.70
2017-10-05T22:14:43.097Z,5.73
2017-10-05T22:17:09.704Z,6.00
2017-10-05T22:19:36.309Z,5.00
2017-10-05T22:22:02.918Z,5.73
2017-10-05T22:24:29.538Z,5.97
2017-10-05T22:26:56.153Z,6.30
2017-10-05T22:29:22.777Z,6.27
2017-10-05T22:31:49.379Z,6.20
2017-10-05T22:34:15.995Z,6.77
2017-10-05T22:36:42.671Z,5.60
2017-10-05T22:39:09.309Z,5.97
2017-10-05T22:41:35.910Z,5.60
2017-10-05T22:44:02.504Z,5.60
2017-10-05T22:46:29.127Z,6.27
2017-10-05T22:48:55.756Z,5.63
2017-10-05T22:51:22.389Z,6.03
2017-10-05T22:53:48.990Z,5.97
2017-10-05T22:56:15.613Z,6.17
2017-10-05T22:58:42.245Z,5.60
2017-10-05T23:01:08.841Z,5.37
2017-10-05T23:03:35.445Z,6.10
2017-10-05T23:06:02.070Z,6.00
2017-10-05T23:08:28.670Z,5.90
2017-10-05T23:10:55.276Z,5.87
2017-10-05T23:13:21.892Z,5.23
2017-10-05T23:15:48.512Z,5.80
2017-10-05T23:18:15.131Z,6.10
2017-10-05T23:20:41.727Z,5.40
2017-10-05T23:23:08.362Z,5.60
2017-10-05T23:25:34.954Z,6.20
2017-10-05T23:28:01.555Z,5.40
2017-10-05T23:30:28.173Z,5.13
2017-10-05T23:32:54.775Z,5.40
2017-10-05T23:35:21.393Z,5.60
2017-10-05T23:37:47.993Z,5.53
2017-10-05T23:40:14.621Z,5.87
2017-10-05T23:42:41.218Z,5.60
2017-10-05T23:45:07.816Z,5.50
2017-10-05T23:47:34.433Z,6.07
2017-10-05T23:50:01.090Z,5.27
2017-10-05T23:52:27.709Z,6.27
2017-10-05T23:54:54.822Z,5.77
2017-10-05T23:57:21.431Z,6.67
2017-10-05T23:59:48.054Z,6.17
